Time;durP1;ratioP1;P1;durP2;ratioP2;P2;SDS_P1;SDS_P2;PMS_P1;PMS_P2;Temp;Humidity;BMP_temperature;BMP_pressure;BME280_temperature;BME280_humidity;BME280_pressure;Samples;Min_cycle;Max_cycle;Signal;HPM_P1;HPM_P2
2021/09/02 00:49:08;;;;;;;24.42;13.10;;;;;;;10.65;100.00;102309.31;5109961;24;20062;-84
2021/09/02 01:32:57;;;;;;;26.55;14.73;;;;;;;10.46;100.00;102366.91;5544607;24;20276;-80
2021/09/02 04:24:35;;;;;;;18.83;9.40;;;;;;;9.69;100.00;102347.88;5860242;24;20054;31
2021/09/02 04:45:17;;;;;;;18.60;11.23;;;;;;;10.91;100.00;102516.59;5220061;24;20066;-80
2021/09/02 04:47:42;;;;;;;20.75;12.25;;;;;;;10.92;100.00;102491.34;4794904;29;20098;-81
2021/09/02 04:50:10;;;;;;;20.58;11.80;;;;;;;11.08;100.00;102504.06;4814039;29;20070;-81
2021/09/02 04:52:37;;;;;;;14.25;9.80;;;;;;;11.12;100.00;102497.34;4801908;29;20042;-80
2021/09/02 04:55:04;;;;;;;18.45;11.68;;;;;;;11.21;100.00;102499.91;4793814;30;20047;-80
2021/09/02 04:57:29;;;;;;;19.23;12.15;;;;;;;11.33;100.00;102496.94;4798212;29;20031;-79
2021/09/02 04:59:55;;;;;;;11.80;8.98;;;;;;;11.45;100.00;102495.63;4790947;29;20037;-79
2021/09/02 05:02:20;;;;;;;14.15;8.88;;;;;;;11.50;100.00;102494.13;4799651;29;20039;-79
2021/09/02 05:04:47;;;;;;;14.75;10.10;;;;;;;11.47;100.00;102493.63;4780339;29;20104;-79
2021/09/02 05:07:12;;;;;;;14.30;10.10;;;;;;;11.42;100.00;102490.56;4796312;29;20031;-81
2021/09/02 05:09:38;;;;;;;13.90;9.52;;;;;;;11.49;100.00;102492.44;4790642;29;20035;-80
2021/09/02 05:12:03;;;;;;;14.45;10.32;;;;;;;11.53;100.00;102487.56;4780319;29;20042;-79
2021/09/02 05:14:29;;;;;;;14.65;10.13;;;;;;;11.57;100.00;102494.31;4788044;29;20051;-80
2021/09/02 05:17:01;;;;;;;14.77;9.10;;;;;;;11.62;100.00;102501.91;4795193;29;20081;-79
2021/09/02 05:19:44;;;;;;;12.75;9.40;;;;;;;11.60;100.00;102504.78;4807966;29;20035;-78
2021/09/02 05:22:10;;;;;;;15.63;9.75;;;;;;;11.68;100.00;102499.38;4804051;29;20043;-81
2021/09/02 05:24:35;;;;;;;17.90;10.20;;;;;;;11.79;100.00;102509.03;4783197;30;20158;-80
2021/09/02 05:27:01;;;;;;;14.50;9.00;;;;;;;11.84;100.00;102505.84;4791821;29;20035;-80
2021/09/02 05:29:26;;;;;;;16.45;10.55;;;;;;;11.87;100.00;102510.94;4773380;29;20035;-78
2021/09/02 05:31:51;;;;;;;23.27;13.05;;;;;;;11.98;100.00;102507.91;4788554;29;20098;-79
2021/09/02 05:34:17;;;;;;;15.50;9.60;;;;;;;12.08;100.00;102518.53;4794146;29;20173;-79
2021/09/02 05:36:43;;;;;;;18.35;10.00;;;;;;;12.13;100.00;102527.84;4801230;29;20039;-79
2021/09/02 05:39:09;;;;;;;17.92;10.25;;;;;;;12.06;100.00;102504.41;4762122;30;20054;-80
2021/09/02 05:41:34;;;;;;;17.17;9.48;;;;;;;12.19;100.00;102516.38;4785589;29;20051;-78
2021/09/02 05:44:01;;;;;;;19.20;10.48;;;;;;;12.28;100.00;102516.38;4772970;30;20043;-79
2021/09/02 05:46:26;;;;;;;15.27;10.02;;;;;;;12.40;100.00;102525.81;4758655;30;20120;-79
2021/09/02 05:48:51;;;;;;;16.20;9.35;;;;;;;12.28;100.00;102503.72;4774114;30;20073;-79
2021/09/02 05:51:18;;;;;;;16.27;9.32;;;;;;;12.41;100.00;102514.00;4788496;29;20126;-79
2021/09/02 05:53:44;;;;;;;18.90;9.52;;;;;;;12.52;100.00;102513.69;4769798;29;20046;-79
2021/09/02 05:56:09;;;;;;;13.73;9.00;;;;;;;12.43;100.00;102496.63;4771515;29;20039;-79
2021/09/02 05:58:34;;;;;;;12.98;9.02;;;;;;;12.56;100.00;102515.00;4759582;29;20122;-79
2021/09/02 06:01:00;;;;;;;17.98;9.48;;;;;;;12.65;100.00;102516.69;4771840;29;20121;-79
2021/09/02 06:03:28;;;;;;;14.77;9.75;;;;;;;12.63;100.00;102521.41;4787984;29;20485;-79
2021/09/02 06:05:53;;;;;;;17.83;11.13;;;;;;;12.55;100.00;102507.06;4790402;29;20023;-79
2021/09/02 06:08:25;;;;;;;13.82;9.60;;;;;;;12.67;100.00;102511.94;4798707;29;20066;-79
2021/09/02 06:10:50;;;;;;;16.10;10.15;;;;;;;12.71;100.00;102517.84;4807848;29;20031;-79
2021/09/02 06:13:16;;;;;;;15.70;10.43;;;;;;;12.76;100.00;102522.75;4756825;30;20054;-79
2021/09/02 06:15:41;;;;;;;11.70;9.32;;;;;;;12.84;100.00;102520.03;4787518;29;20047;-79
2021/09/02 06:18:06;;;;;;;13.98;9.52;;;;;;;12.92;100.00;102522.72;4773772;30;20529;-79
2021/09/02 06:20:32;;;;;;;12.15;9.50;;;;;;;12.99;100.00;102510.19;4789092;29;20050;-79
2021/09/02 06:22:59;;;;;;;11.40;8.63;;;;;;;13.20;100.00;102531.25;4773808;30;20104;-79
2021/09/02 06:25:24;;;;;;;14.18;9.10;;;;;;;13.33;100.00;102525.31;4786519;29;20061;-79
2021/09/02 06:27:49;;;;;;;13.20;8.90;;;;;;;13.39;100.00;102508.41;4787969;29;20125;-79
2021/09/02 06:30:16;;;;;;;15.55;9.63;;;;;;;13.61;100.00;102523.84;4788060;29;20466;-79
2021/09/02 06:32:41;;;;;;;14.10;9.38;;;;;;;13.75;100.00;102522.25;4773383;30;20055;-79
2021/09/02 06:35:07;;;;;;;12.63;10.02;;;;;;;13.82;100.00;102512.38;4775322;30;20039;-80
2021/09/02 06:37:33;;;;;;;11.80;8.85;;;;;;;14.06;100.00;102524.91;4810779;29;20045;-79
2021/09/02 06:39:58;;;;;;;14.35;9.50;;;;;;;14.10;100.00;102514.56;4791874;29;20053;-79
2021/09/02 06:42:24;;;;;;;14.57;9.07;;;;;;;14.28;100.00;102527.78;4785965;29;20068;-80
2021/09/02 06:44:49;;;;;;;12.70;8.93;;;;;;;14.30;100.00;102506.78;4783967;29;20062;-79
2021/09/02 06:47:15;;;;;;;11.55;8.10;;;;;;;14.55;100.00;102515.56;4787150;29;20069;-79
2021/09/02 06:49:49;;;;;;;11.98;8.48;;;;;;;14.69;100.00;102516.63;4782472;29;20039;-79
2021/09/02 06:52:15;;;;;;;11.20;8.18;;;;;;;14.82;100.00;102522.25;4759278;29;20051;-80
2021/09/02 06:54:40;;;;;;;11.52;8.25;;;;;;;14.98;100.00;102519.34;4800458;29;20051;-80
2021/09/02 06:57:06;;;;;;;9.75;8.10;;;;;;;15.13;99.68;102527.50;4781747;30;20035;-80
2021/09/02 06:59:31;;;;;;;10.55;7.57;;;;;;;15.09;98.93;102490.09;4783446;29;20061;-79
2021/09/02 07:01:57;;;;;;;11.98;7.88;;;;;;;15.30;99.03;102511.88;4793002;29;20039;-79
2021/09/02 07:04:22;;;;;;;11.63;7.65;;;;;;;15.48;98.63;102516.91;4795471;29;20087;-79
2021/09/02 07:06:47;;;;;;;12.85;7.75;;;;;;;15.51;98.42;102502.97;4779664;30;20035;-80
2021/09/02 07:09:13;;;;;;;9.38;7.10;;;;;;;15.72;97.53;102516.56;4782883;29;20067;-79
2021/09/02 07:11:38;;;;;;;11.65;6.78;;;;;;;15.71;97.11;102498.63;4792805;29;20034;-80
2021/09/02 07:14:04;;;;;;;8.50;6.82;;;;;;;15.72;95.89;102466.91;4781550;29;20043;-80
2021/09/02 07:16:30;;;;;;;8.75;6.40;;;;;;;16.21;94.94;102515.00;4788980;29;20039;-79
2021/09/02 07:18:56;;;;;;;8.98;6.05;;;;;;;16.30;94.23;102516.56;4788127;29;20118;-80
2021/09/02 07:21:21;;;;;;;9.80;6.50;;;;;;;16.39;94.17;102511.81;4799167;29;20072;-79
2021/09/02 07:23:46;;;;;;;8.60;6.10;;;;;;;16.38;94.06;102518.28;4793863;29;20023;-79
2021/09/02 07:26:12;;;;;;;11.13;6.40;;;;;;;16.48;93.37;102502.47;4801723;29;20360;-79
2021/09/02 07:28:38;;;;;;;7.10;5.88;;;;;;;16.70;92.60;102508.72;4790217;29;20035;-79
2021/09/02 07:31:03;;;;;;;6.28;5.53;;;;;;;16.58;92.66;102504.84;4780039;29;20207;-80
2021/09/02 07:33:29;;;;;;;7.28;5.32;;;;;;;16.65;92.29;102509.31;4785665;29;20126;-80
2021/09/02 07:35:54;;;;;;;8.38;5.25;;;;;;;16.81;91.21;102500.03;4784094;29;20031;-78
2021/09/02 07:38:19;;;;;;;8.15;5.22;;;;;;;16.88;90.15;102509.06;4795276;29;20125;-80
2021/09/02 07:40:45;;;;;;;9.65;5.63;;;;;;;16.86;89.88;102511.16;4790272;30;20586;-79
2021/09/02 07:43:10;;;;;;;7.63;5.30;;;;;;;16.73;89.87;102513.75;4783733;29;20075;-80
2021/09/02 07:45:35;;;;;;;9.32;5.10;;;;;;;16.64;88.49;102494.03;4788500;29;20055;-80
2021/09/02 07:48:02;;;;;;;7.10;4.97;;;;;;;16.66;88.43;102488.41;4785274;29;20049;-79
2021/09/02 07:50:29;;;;;;;7.30;5.15;;;;;;;16.87;87.88;102517.44;4788522;29;20120;-79
2021/09/02 07:52:54;;;;;;;6.22;5.00;;;;;;;16.79;86.84;102499.41;4792546;29;20106;-79
2021/09/02 07:55:20;;;;;;;9.48;5.50;;;;;;;16.83;86.95;102517.00;4776108;29;20411;-79
2021/09/02 07:57:47;;;;;;;6.68;5.18;;;;;;;16.67;86.56;102514.56;4804065;29;20046;-79
2021/09/02 08:00:14;;;;;;;7.60;5.47;;;;;;;16.51;87.06;102503.97;4789525;29;20043;-79
2021/09/02 08:02:40;;;;;;;8.20;5.57;;;;;;;16.51;87.56;102506.69;4787480;29;20088;-79
2021/09/02 08:05:07;;;;;;;8.63;5.13;;;;;;;16.62;86.93;102525.16;4791259;30;20031;-80
2021/09/02 08:07:46;;;;;;;8.32;5.53;;;;;;;16.45;87.08;102498.28;4816175;29;20031;-80
2021/09/02 08:10:12;;;;;;;9.05;5.72;;;;;;;16.60;87.42;102521.81;4800743;29;20035;-80
2021/09/02 08:12:37;;;;;;;7.55;5.75;;;;;;;16.57;86.97;102525.75;4806029;29;20075;-81
2021/09/02 08:15:03;;;;;;;7.70;5.80;;;;;;;16.49;86.95;102512.34;4794292;29;20039;-81
2021/09/02 08:17:30;;;;;;;7.15;6.05;;;;;;;16.54;86.86;102517.16;4808194;29;20090;-80
2021/09/02 08:19:55;;;;;;;7.10;5.78;;;;;;;16.50;86.92;102508.56;4792035;29;20027;-80
2021/09/02 08:22:21;;;;;;;7.15;5.80;;;;;;;16.56;86.14;102518.66;4796920;30;20204;-80
2021/09/02 08:24:46;;;;;;;7.00;5.45;;;;;;;16.54;86.20;102507.13;4774579;30;20023;-80
2021/09/02 08:27:12;;;;;;;8.23;5.53;;;;;;;16.58;85.95;102518.44;4778204;29;20118;-79
2021/09/02 08:29:37;;;;;;;10.15;5.72;;;;;;;16.50;86.63;102496.88;4772738;29;20069;-80
2021/09/02 08:32:03;;;;;;;5.80;4.43;;;;;;;16.64;86.25;102475.00;4808486;29;20027;-80
2021/09/02 08:34:29;;;;;;;4.95;4.18;;;;;;;16.88;85.36;102475.59;4814439;29;20442;-80
2021/09/02 08:36:55;;;;;;;4.22;1.40;;;;;;;17.30;78.63;102507.22;4805564;29;20099;-81
2021/09/02 08:39:20;;;;;;;2.88;0.98;;;;;;;17.64;75.48;102510.91;4807153;29;20083;-80
2021/09/02 08:41:45;;;;;;;1.77;1.30;;;;;;;17.92;73.41;102497.19;4793936;29;20020;-83
2021/09/02 08:44:11;;;;;;;0.80;0.73;;;;;;;18.23;71.91;102499.31;4797664;30;20067;-81
2021/09/02 08:46:37;;;;;;;0.60;0.60;;;;;;;18.38;69.45;102492.84;4793691;29;20035;-81
2021/09/02 08:49:05;;;;;;;1.20;0.80;;;;;;;18.61;67.83;102497.81;4796885;29;20111;-81
2021/09/02 08:51:32;;;;;;;0.80;0.80;;;;;;;18.75;67.05;102483.19;4794030;29;20031;-81
2021/09/02 08:53:57;;;;;;;0.80;0.75;;;;;;;18.85;66.24;102471.84;4803873;30;20070;-80
2021/09/02 08:56:24;;;;;;;1.02;0.85;;;;;;;19.01;65.29;102491.28;4810919;29;20067;-81
2021/09/02 08:58:49;;;;;;;2.33;1.00;;;;;;;18.96;64.94;102441.16;4806436;29;20031;-81
2021/09/02 09:01:15;;;;;;;0.88;0.85;;;;;;;19.27;64.25;102486.81;4807813;29;20035;-82
2021/09/02 09:03:47;;;;;;;1.30;0.90;;;;;;;19.34;63.50;102473.13;4806273;29;20027;-81
2021/09/02 09:06:26;;;;;;;2.13;0.90;;;;;;;19.41;63.44;102463.00;4812317;29;20015;-82
2021/09/02 09:08:53;;;;;;;1.90;1.10;;;;;;;19.59;62.75;102478.66;4824972;29;20046;-81
2021/09/02 09:14:09;;;;;;;1.27;1.17;;;;;;;19.68;62.05;102478.22;4929181;24;20067;-82
2021/09/02 09:16:49;;;;;;;3.10;1.20;;;;;;;19.75;62.15;102480.91;4823888;29;20019;-82
2021/09/02 09:19:54;;;;;;;2.40;0.90;;;;;;;19.27;61.28;102410.38;4810354;29;20231;-82
2021/09/02 09:22:40;;;;;;;1.77;1.20;;;;;;;19.39;60.61;102426.91;4821578;29;20031;-81
2021/09/02 09:25:08;;;;;;;1.20;0.93;;;;;;;19.42;60.52;102421.84;4812420;29;20030;-82
2021/09/02 09:27:39;;;;;;;1.23;1.10;;;;;;;19.44;60.48;102408.81;4826648;29;20082;-80
2021/09/02 09:30:08;;;;;;;1.15;1.00;;;;;;;18.80;59.84;102305.25;4813148;29;20121;-82
2021/09/02 09:32:59;;;;;;;1.30;1.10;;;;;;;19.79;59.49;102448.53;4823950;29;20018;-82
2021/09/02 09:35:32;;;;;;;1.85;1.10;;;;;;;20.03;59.87;102458.63;4836918;29;20019;-82
2021/09/02 09:38:19;;;;;;;1.42;1.08;;;;;;;20.04;59.74;102482.19;4811483;29;20034;-81
2021/09/02 09:40:47;;;;;;;1.55;1.17;;;;;;;18.96;59.57;102285.66;4816675;29;20035;-81
2021/09/02 09:43:17;;;;;;;1.60;1.02;;;;;;;18.95;58.52;102286.72;4811870;29;20031;-81
2021/09/02 09:46:09;;;;;;;2.33;1.20;;;;;;;20.15;58.97;102465.06;4799672;29;20043;-82
2021/09/02 09:48:39;;;;;;;2.60;1.30;;;;;;;19.49;59.22;102365.28;4827605;29;20042;-81
2021/09/02 09:51:19;;;;;;;1.13;1.02;;;;;;;20.23;58.39;102468.56;4831167;29;20082;-82
2021/09/02 09:53:51;;;;;;;1.73;1.60;;;;;;;19.83;59.53;102392.38;4828354;29;20034;-83
2021/09/02 09:56:22;;;;;;;2.22;1.75;;;;;;;20.27;59.98;102461.63;4811389;29;20044;-81
2021/09/02 09:58:50;;;;;;;2.30;1.60;;;;;;;20.23;58.99;102463.09;4805721;29;20014;-83
2021/09/02 10:01:17;;;;;;;2.30;1.50;;;;;;;19.13;59.20;102284.06;5193545;24;20039;-84
2021/09/02 10:06:20;;;;;;;2.22;1.60;;;;;;;19.63;59.89;102351.53;5393562;24;20039;-82
2021/09/02 10:08:47;;;;;;;2.97;1.80;;;;;;;19.47;60.32;102314.72;4808732;29;20088;-83
2021/09/02 10:11:14;;;;;;;5.00;2.00;;;;;;;19.23;60.80;102269.94;4808244;29;20039;-82
2021/09/02 10:13:42;;;;;;;2.38;1.98;;;;;;;19.23;60.82;102268.06;4807252;29;20050;-82
2021/09/02 10:16:08;;;;;;;2.40;1.90;;;;;;;19.12;61.54;102271.50;4810154;29;20014;-82
2021/09/02 10:18:40;;;;;;;2.35;1.80;;;;;;;19.37;62.21;102295.25;4813102;29;20069;-81
2021/09/02 10:21:07;;;;;;;2.50;1.60;;;;;;;19.76;61.57;102347.91;4827241;29;20027;-82
2021/09/02 10:23:33;;;;;;;2.90;2.05;;;;;;;19.99;62.07;102391.84;4836704;29;20065;-82
2021/09/02 10:25:59;;;;;;;4.50;2.20;;;;;;;19.10;62.40;102257.22;4826883;29;20250;-82
2021/09/02 10:28:51;;;;;;;3.03;2.08;;;;;;;20.14;62.44;102438.81;4812836;29;20050;-82
2021/09/02 10:31:23;;;;;;;2.88;2.00;;;;;;;20.07;62.68;102448.97;4817732;29;20030;-81
2021/09/02 10:33:50;;;;;;;3.17;2.33;;;;;;;18.91;62.58;102258.22;4826683;29;20027;-83
2021/09/02 10:36:16;;;;;;;3.13;1.70;;;;;;;19.94;63.08;102432.66;4828836;29;20035;-81
2021/09/02 10:38:50;;;;;;;4.70;2.05;;;;;;;19.65;63.77;102374.06;4826729;29;20015;-84
2021/09/02 10:41:37;;;;;;;3.50;2.15;;;;;;;19.73;64.54;102390.16;4812259;29;20019;-82
2021/09/02 10:44:10;;;;;;;4.65;2.03;;;;;;;19.06;64.63;102269.66;4796291;29;20038;-82
2021/09/02 10:46:46;;;;;;;5.28;1.92;;;;;;;20.17;64.07;102421.97;4829145;29;20043;-83
2021/09/02 10:49:17;;;;;;;3.28;2.10;;;;;;;20.31;63.90;102424.56;5020531;24;20044;-83
2021/09/02 10:51:48;;;;;;;3.42;1.75;;;;;;;19.29;63.80;102260.03;4791298;29;20015;-83
2021/09/02 10:54:15;;;;;;;3.33;1.77;;;;;;;19.79;62.51;102314.69;4789744;29;20050;-81
2021/09/02 10:57:04;;;;;;;4.38;1.70;;;;;;;19.33;62.57;102231.25;5022087;24;20043;-81
2021/09/02 10:59:50;;;;;;;3.38;1.80;;;;;;;20.45;62.39;102417.91;4812311;29;20042;-79
2021/09/02 11:07:47;;;;;;;4.53;2.13;;;;;;;19.77;63.53;102282.16;5167084;24;20059;-82
2021/09/02 11:10:18;;;;;;;6.55;2.15;;;;;;;19.37;62.70;102195.13;4809752;29;20018;-81
2021/09/02 11:12:48;;;;;;;4.68;1.85;;;;;;;20.72;61.81;102401.25;4811763;29;20023;-80
2021/09/02 11:15:24;;;;;;;3.35;1.85;;;;;;;20.35;62.18;102344.59;4809928;29;20107;-81
2021/09/02 11:17:57;;;;;;;2.78;1.90;;;;;;;20.79;62.52;102400.09;4823267;29;20031;-80
2021/09/02 11:20:27;;;;;;;6.55;2.33;;;;;;;20.07;63.68;102282.25;4826820;29;20038;-81
2021/09/02 11:23:10;;;;;;;5.38;2.40;;;;;;;19.94;64.82;102290.59;4826006;29;20027;-82
2021/09/02 11:25:48;;;;;;;4.03;2.13;;;;;;;19.76;65.54;102287.81;4826402;29;20038;-81
2021/09/02 11:28:17;;;;;;;4.50;2.75;;;;;;;19.18;65.93;102205.13;4827982;29;20023;-82
2021/09/02 11:30:46;;;;;;;6.32;2.63;;;;;;;19.59;65.62;102282.06;5071744;24;20025;-82
2021/09/02 11:46:07;;;;;;;6.03;3.00;;;;;;;19.00;69.75;102203.16;4960353;24;20058;-84
2021/09/02 11:51:10;;;;;;;6.13;3.00;;;;;;;19.46;70.44;102242.06;4851266;24;20062;-84
2021/09/02 11:53:37;;;;;;;5.63;3.53;;;;;;;19.40;70.63;102226.56;4824459;29;20098;-82
2021/09/02 11:56:13;;;;;;;8.20;3.95;;;;;;;19.59;70.88;102232.91;4829194;29;20030;-81
2021/09/02 11:58:40;;;;;;;7.18;4.10;;;;;;;20.50;71.00;102376.22;4832525;29;20031;-82
2021/09/02 12:01:07;;;;;;;7.03;3.97;;;;;;;20.08;71.51;102316.72;4831611;29;20039;-83
2021/09/02 12:03:32;;;;;;;9.50;4.13;;;;;;;19.52;71.79;102226.69;4815713;29;20007;-83
2021/09/02 12:05:58;;;;;;;6.88;4.28;;;;;;;19.58;72.03;102225.78;4835154;29;20072;-80
2021/09/02 12:08:26;;;;;;;8.05;4.13;;;;;;;20.07;71.32;102330.63;4824851;29;20014;-81
2021/09/02 12:10:52;;;;;;;6.05;4.13;;;;;;;19.97;71.77;102313.88;4827197;29;20018;-83
2021/09/02 12:31:31;;;;;;;6.45;3.90;;;;;;;20.21;72.63;102332.16;5654191;24;20057;-83
2021/09/02 12:34:10;;;;;;;5.65;4.00;;;;;;;18.97;72.61;102140.88;4830400;29;20064;-83
2021/09/02 12:36:38;;;;;;;6.88;3.80;;;;;;;19.62;72.43;102271.53;4824395;29;20007;-84
2021/09/02 12:39:15;;;;;;;5.53;3.88;;;;;;;20.07;72.93;102336.91;4826610;29;20046;-83
2021/09/02 12:41:47;;;;;;;7.40;3.95;;;;;;;20.18;72.91;102319.75;4815436;29;20039;-83
2021/09/02 12:47:14;;;;;;;6.68;3.97;;;;;;;19.18;72.69;102131.47;5797838;24;20017;-82
2021/09/02 12:52:28;;;;;;;8.82;4.15;;;;;;;19.15;70.90;102117.44;4992086;24;20924;-82
2021/09/02 12:55:03;;;;;;;6.93;4.15;;;;;;;20.35;71.01;102300.03;4911738;24;20062;-81
2021/09/02 13:00:30;;;;;;;8.80;4.18;;;;;;;19.64;71.28;102208.53;4868634;24;20088;-84
2021/09/02 13:02:56;;;;;;;9.30;4.07;;;;;;;19.82;71.13;102218.63;4794455;29;20051;-81
2021/09/02 13:05:23;;;;;;;7.25;3.95;;;;;;;19.31;70.30;102124.22;4796701;29;20095;-82
2021/09/02 13:07:55;;;;;;;5.75;4.05;;;;;;;19.16;69.58;102091.81;4827948;29;20133;-80
2021/09/02 13:10:22;;;;;;;8.13;4.30;;;;;;;19.56;69.56;102163.19;4809357;30;20026;-81
2021/09/02 13:12:49;;;;;;;9.48;4.90;;;;;;;20.16;70.28;102264.50;4812313;29;20022;-83
2021/09/02 13:15:15;;;;;;;8.45;4.57;;;;;;;19.82;70.43;102199.53;4797074;29;20378;-83
2021/09/02 13:22:54;;;;;;;15.43;6.30;;;;;;;19.20;72.79;102134.81;5056720;24;20058;-82
2021/09/02 13:25:20;;;;;;;12.60;5.88;;;;;;;19.45;73.72;102183.06;4812866;29;20031;-83
2021/09/02 13:27:47;;;;;;;16.05;8.15;;;;;;;20.01;75.41;102265.94;4958513;24;20078;-82
2021/09/02 13:30:16;;;;;;;13.68;8.00;;;;;;;20.00;76.28;102275.19;4801290;29;20051;-82
2021/09/02 13:32:44;;;;;;;17.48;9.98;;;;;;;18.76;77.35;102108.53;4797045;29;20061;-81
2021/09/02 13:35:11;;;;;;;15.65;11.02;;;;;;;18.94;78.92;102157.69;4809699;29;20027;-82
2021/09/02 13:37:39;;;;;;;21.52;12.05;;;;;;;19.00;79.64;102196.88;4811414;29;20041;-80
2021/09/02 13:40:08;;;;;;;17.50;13.57;;;;;;;18.89;80.06;102194.88;4794148;29;20035;-81
2021/09/02 13:42:33;;;;;;;16.23;12.35;;;;;;;19.07;80.14;102251.38;4797249;29;20032;-81
2021/09/02 13:44:59;;;;;;;18.63;14.30;;;;;;;18.15;80.20;102118.13;4828175;29;20045;-82
2021/09/02 13:47:25;;;;;;;19.25;14.32;;;;;;;17.97;80.98;102107.09;4826710;29;20019;-81
2021/09/02 13:49:51;;;;;;;19.40;12.50;;;;;;;18.02;81.47;102129.91;4793528;30;20027;-81
2021/09/02 13:52:17;;;;;;;21.60;16.40;;;;;;;18.69;82.32;102233.97;4809044;30;20031;-81
2021/09/02 13:54:43;;;;;;;20.70;15.45;;;;;;;17.71;82.85;102100.66;4792783;30;20039;-81
2021/09/02 13:57:09;;;;;;;27.02;16.67;;;;;;;18.02;83.87;102183.56;4793947;30;20035;-81
2021/09/02 13:59:35;;;;;;;25.70;19.13;;;;;;;17.59;84.47;102124.19;4809931;30;20080;-82
2021/09/02 14:02:01;;;;;;;20.90;17.10;;;;;;;17.37;84.81;102127.13;4808324;30;20038;-82
2021/09/02 14:04:27;;;;;;;23.02;17.77;;;;;;;17.37;85.07;102148.91;4808253;30;20027;-81
2021/09/02 14:06:53;;;;;;;22.38;17.85;;;;;;;17.92;85.21;102237.63;4792980;29;20056;-81
2021/09/02 14:09:19;;;;;;;23.42;18.02;;;;;;;16.99;85.16;102090.81;4806553;29;20027;-81
2021/09/02 14:11:45;;;;;;;21.20;17.35;;;;;;;17.43;85.45;102185.34;4804451;29;20301;-80
2021/09/02 14:14:15;;;;;;;21.13;18.02;;;;;;;17.21;85.95;102176.53;4805012;29;20065;-81
2021/09/02 14:16:41;;;;;;;19.95;17.00;;;;;;;17.61;85.93;102244.53;4785874;29;20027;-81
2021/09/02 14:19:07;;;;;;;22.58;17.75;;;;;;;16.55;86.18;102073.19;4795361;29;20027;-80
2021/09/02 14:21:33;;;;;;;22.42;17.20;;;;;;;16.41;85.86;102059.59;4802496;29;20049;-81
2021/09/02 14:23:59;;;;;;;28.30;21.70;;;;;;;17.22;86.28;102213.59;4799550;29;20104;-80
2021/09/02 14:26:24;;;;;;;32.75;21.80;;;;;;;17.20;86.62;102221.13;4769594;29;20066;-80
2021/09/02 14:28:50;;;;;;;37.70;24.98;;;;;;;17.17;87.02;102218.81;4785418;29;20027;-80
2021/09/02 14:31:15;;;;;;;34.28;24.33;;;;;;;16.86;88.24;102195.78;4785963;29;20114;-80
2021/09/02 14:33:42;;;;;;;36.75;26.63;;;;;;;16.87;88.75;102207.50;4751871;29;20490;-80
2021/09/02 14:36:08;;;;;;;43.08;29.45;;;;;;;16.83;89.08;102207.06;4786024;29;20038;-80
2021/09/02 14:38:33;;;;;;;43.00;30.27;;;;;;;16.89;89.65;102217.13;4785495;30;20035;-81
2021/09/02 14:40:59;;;;;;;38.92;27.50;;;;;;;16.83;90.43;102215.22;4785071;30;20107;-80
2021/09/02 14:43:25;;;;;;;43.10;28.85;;;;;;;17.04;89.79;102205.22;4783173;30;20051;-80
2021/09/02 14:45:51;;;;;;;43.28;28.73;;;;;;;17.06;89.53;102203.13;4756936;30;20061;-81
2021/09/02 14:48:16;;;;;;;43.88;26.80;;;;;;;17.13;89.52;102202.06;4776018;29;20027;-80
2021/09/02 14:50:42;;;;;;;40.15;26.45;;;;;;;17.24;88.92;102197.06;4774022;29;20023;-79
2021/09/02 14:53:07;;;;;;;44.03;27.92;;;;;;;17.40;88.50;102185.75;4800272;29;20035;-81
2021/09/02 14:55:35;;;;;;;40.10;25.35;;;;;;;17.48;88.05;102184.69;4787611;29;20070;-80
2021/09/02 14:58:02;;;;;;;36.15;23.27;;;;;;;17.45;88.24;102183.25;4775901;30;20029;-81
2021/09/02 15:00:27;;;;;;;41.40;26.23;;;;;;;17.12;88.60;102145.19;4811831;29;20064;-82
2021/09/02 15:02:54;;;;;;;44.63;27.42;;;;;;;17.16;89.08;102160.03;4779305;30;20043;-81
2021/09/02 15:05:19;;;;;;;41.33;22.83;;;;;;;16.82;90.39;102129.28;4796997;29;20027;-81
2021/09/02 15:07:45;;;;;;;37.33;22.05;;;;;;;17.10;90.45;102172.56;4793554;30;20034;-81
2021/09/02 15:10:14;;;;;;;32.75;19.23;;;;;;;16.98;90.77;102171.50;4806581;30;20039;-81
2021/09/02 15:12:39;;;;;;;33.78;18.63;;;;;;;16.91;91.27;102166.06;4793769;29;20117;-81
2021/09/02 15:15:05;;;;;;;31.15;15.88;;;;;;;16.57;92.11;102120.03;4797407;29;20027;-81
2021/09/02 15:17:30;;;;;;;30.55;14.70;;;;;;;16.76;92.52;102157.28;4805516;29;20454;-80
2021/09/02 15:19:57;;;;;;;26.02;12.98;;;;;;;16.75;92.68;102138.47;4781486;30;20160;-81
2021/09/02 15:22:23;;;;;;;23.17;12.90;;;;;;;16.80;92.43;102146.84;4794825;30;20070;-81
2021/09/02 15:24:48;;;;;;;26.00;13.80;;;;;;;16.79;92.47;102140.56;4791557;29;20035;-80
2021/09/02 15:27:13;;;;;;;24.33;12.98;;;;;;;16.89;91.98;102145.59;4812568;29;20050;-81
2021/09/02 15:29:39;;;;;;;20.80;11.15;;;;;;;16.89;91.15;102124.69;4806286;29;20158;-82
2021/09/02 15:32:05;;;;;;;24.98;11.90;;;;;;;16.94;90.48;102124.03;4755696;30;20069;-80
2021/09/02 15:34:30;;;;;;;24.30;11.60;;;;;;;17.02;90.23;102123.00;4801890;29;20108;-82
2021/09/02 15:36:57;;;;;;;22.25;11.77;;;;;;;17.08;90.53;102122.16;4792756;30;20055;-82
2021/09/02 15:39:22;;;;;;;23.40;11.70;;;;;;;17.11;89.81;102108.13;4791392;29;20047;-80
2021/09/02 15:41:48;;;;;;;23.73;12.13;;;;;;;17.00;89.94;102093.31;4787844;29;20028;-81
2021/09/02 15:44:16;;;;;;;25.33;11.73;;;;;;;17.23;89.86;102120.06;4795727;29;20063;-81
2021/09/02 15:46:43;;;;;;;25.00;12.20;;;;;;;17.24;89.70;102105.41;4767236;29;20117;-81
2021/09/02 15:49:09;;;;;;;29.08;12.10;;;;;;;17.13;89.21;102089.72;4797214;29;20039;-81
2021/09/02 15:51:35;;;;;;;29.08;12.18;;;;;;;17.01;89.15;102083.25;4797310;29;20091;-81
2021/09/02 15:54:00;;;;;;;29.23;13.45;;;;;;;17.02;89.58;102091.22;4812346;29;20047;-81
2021/09/02 15:56:26;;;;;;;35.83;17.40;;;;;;;17.08;90.20;102089.53;4781006;29;20035;-81
2021/09/02 15:58:52;;;;;;;28.77;14.70;;;;;;;17.23;89.99;102101.03;4794074;29;20091;-82
2021/09/02 16:01:17;;;;;;;29.30;13.27;;;;;;;17.26;89.89;102097.03;4807550;29;20022;-82
2021/09/02 16:03:46;;;;;;;28.27;11.85;;;;;;;17.24;89.69;102075.47;4797458;29;20095;-81
2021/09/02 16:06:12;;;;;;;24.85;11.07;;;;;;;17.09;89.64;102051.25;4793173;29;20030;-81
2021/09/02 16:08:38;;;;;;;25.75;11.85;;;;;;;17.28;89.99;102084.03;4797112;29;20029;-81
2021/09/02 16:11:04;;;;;;;23.10;12.30;;;;;;;17.27;89.57;102074.22;4796670;30;20046;-81
2021/09/02 16:13:30;;;;;;;24.00;11.45;;;;;;;17.17;89.67;102043.91;4807614;29;20011;-80
2021/09/02 16:15:56;;;;;;;28.58;13.02;;;;;;;17.24;89.50;102042.00;4807040;29;20079;-81
2021/09/02 16:18:28;;;;;;;24.92;12.45;;;;;;;17.29;89.28;102040.31;4792112;30;20068;-80
2021/09/02 16:20:55;;;;;;;26.40;12.77;;;;;;;17.36;89.41;102048.47;4771596;29;20031;-81
2021/09/02 16:23:21;;;;;;;26.42;12.45;;;;;;;17.26;89.41;102029.88;4791651;30;20107;-81
2021/09/02 16:25:52;;;;;;;31.98;12.55;;;;;;;17.34;89.14;102043.22;4790663;30;20047;-81
2021/09/02 16:28:18;;;;;;;30.52;12.85;;;;;;;17.34;89.13;102045.09;4805745;29;20145;-81
2021/09/02 16:30:44;;;;;;;27.13;12.77;;;;;;;17.26;89.22;101999.94;4782149;29;20042;-81
2021/09/02 16:33:10;;;;;;;27.92;12.40;;;;;;;17.45;88.69;102019.13;4808758;30;20035;-82
2021/09/02 16:35:37;;;;;;;29.90;13.32;;;;;;;17.49;88.73;102015.78;4787377;30;20069;-79
2021/09/02 16:38:09;;;;;;;30.67;12.20;;;;;;;17.55;88.35;102014.06;4820877;29;20035;-82
2021/09/02 16:43:10;;;;;;;23.52;12.05;;;;;;;16.97;88.43;101899.84;5024776;24;20075;-81
2021/09/02 16:45:36;;;;;;;30.25;11.40;;;;;;;16.76;88.55;101858.31;4837746;29;20050;-80
2021/09/02 16:48:04;;;;;;;26.08;12.35;;;;;;;17.56;88.18;101993.97;4840348;29;20059;-80
2021/09/02 16:50:30;;;;;;;23.98;11.43;;;;;;;16.73;87.80;101864.13;4830110;29;20022;-82
2021/09/02 16:52:55;;;;;;;23.23;11.82;;;;;;;16.44;87.91;101819.28;4830392;29;20105;-82
2021/09/02 16:55:21;;;;;;;22.80;10.50;;;;;;;17.50;87.54;101989.38;4841743;29;20022;-81
2021/09/02 16:57:48;;;;;;;21.17;10.40;;;;;;;16.54;87.02;101829.69;4826648;29;20468;-81